createdAt,value
2018-11-14T00:01:32.044Z,0.70
2018-11-14T00:04:00.195Z,1.53
2018-11-14T00:06:28.700Z,2.13
2018-11-14T00:08:57.127Z,1.03
2018-11-14T00:11:25.224Z,2.50
2018-11-14T00:13:53.648Z,0.67
2018-11-14T00:16:27.747Z,0.30
2018-11-14T00:18:56.167Z,0.50
2018-11-14T00:21:24.596Z,0.40
2018-11-14T00:23:53.031Z,2.07
2018-11-14T00:26:21.431Z,0.33
2018-11-14T00:28:49.855Z,0.43
2018-11-14T00:31:18.228Z,0.50
2018-11-14T00:33:46.640Z,0.50
2018-11-14T00:36:15.049Z,0.40
2018-11-14T00:38:43.536Z,0.53
2018-11-14T00:41:11.920Z,0.50
2018-11-14T00:43:40.323Z,0.30
2018-11-14T00:46:08.703Z,0.30
2018-11-14T00:48:37.112Z,0.20
2018-11-14T00:51:05.732Z,0.40
2018-11-14T00:53:34.120Z,0.30
2018-11-14T00:56:02.524Z,0.50
2018-11-14T00:58:30.903Z,0.60
2018-11-14T01:00:59.313Z,0.50
2018-11-14T01:03:27.616Z,0.50
2018-11-14T01:05:56.035Z,0.37
2018-11-14T01:08:24.415Z,0.57
2018-11-14T01:10:52.829Z,0.40
2018-11-14T01:13:21.599Z,0.40
2018-11-14T01:15:50.013Z,0.40
2018-11-14T01:18:18.415Z,0.30
2018-11-14T01:20:46.817Z,0.40
2018-11-14T01:23:15.198Z,0.30
2018-11-14T01:25:43.306Z,0.40
2018-11-14T01:28:11.681Z,0.50
2018-11-14T01:30:40.088Z,0.40
2018-11-14T01:33:08.481Z,0.40
2018-11-14T01:35:36.913Z,0.43
2018-11-14T01:38:05.744Z,0.40
2018-11-14T01:40:33.859Z,0.40
2018-11-14T01:43:02.024Z,0.60
2018-11-14T01:45:30.437Z,0.80
2018-11-14T01:47:58.823Z,0.30
2018-11-14T01:50:27.235Z,0.40
2018-11-14T01:52:55.644Z,0.60
2018-11-14T01:55:24.060Z,0.57
2018-11-14T01:57:52.415Z,0.50
2018-11-14T02:00:22.184Z,0.47
2018-11-14T02:02:50.593Z,0.50
2018-11-14T02:05:19.035Z,0.30
2018-11-14T02:07:47.430Z,0.83
2018-11-14T02:10:17.126Z,0.50
2018-11-14T02:12:45.891Z,0.60
2018-11-14T02:15:18.519Z,0.37
2018-11-14T02:17:46.925Z,0.40
2018-11-14T02:20:15.455Z,0.73
2018-11-14T02:22:44.504Z,0.53
2018-11-14T02:25:13.540Z,0.30
2018-11-14T02:27:42.226Z,0.43
2018-11-14T02:30:12.131Z,0.50
2018-11-14T02:32:40.519Z,0.50
2018-11-14T02:35:09.374Z,0.40
2018-11-14T02:37:38.153Z,0.20
2018-11-14T02:40:08.764Z,0.40
2018-11-14T02:42:37.186Z,0.30
2018-11-14T02:45:06.251Z,0.33
2018-11-14T02:47:34.415Z,0.33
2018-11-14T02:50:02.539Z,0.40
2018-11-14T02:52:30.961Z,0.50
2018-11-14T02:54:59.346Z,0.37
2018-11-14T02:57:27.455Z,0.10
2018-11-14T02:59:55.858Z,0.20
2018-11-14T03:02:24.783Z,0.37
2018-11-14T03:04:53.242Z,0.30
2018-11-14T03:07:21.656Z,0.40
2018-11-14T03:09:50.040Z,0.30
2018-11-14T03:12:18.508Z,0.30
2018-11-14T03:14:46.900Z,0.30
2018-11-14T03:17:15.552Z,0.30
2018-11-14T03:19:43.964Z,0.30
2018-11-14T03:22:12.368Z,0.40
2018-11-14T03:24:40.764Z,0.40
2018-11-14T03:27:09.187Z,0.40
2018-11-14T03:29:37.562Z,0.40
2018-11-14T03:32:06.009Z,0.27
2018-11-14T03:34:34.398Z,0.30
2018-11-14T03:37:02.527Z,0.30
2018-11-14T03:39:30.920Z,0.27
2018-11-14T03:41:59.040Z,0.20
2018-11-14T03:44:27.468Z,0.43
2018-11-14T03:46:55.868Z,0.30
2018-11-14T03:49:24.259Z,0.50
2018-11-14T03:51:52.671Z,0.30
2018-11-14T03:54:21.079Z,0.53
2018-11-14T03:56:49.484Z,0.27
2018-11-14T03:59:17.593Z,0.30
2018-11-14T04:01:46.030Z,0.40
2018-11-14T04:04:14.432Z,0.30
2018-11-14T04:06:42.966Z,0.20
2018-11-14T04:09:12.458Z,0.20
2018-11-14T04:11:41.037Z,0.30
2018-11-14T04:14:09.602Z,0.40
2018-11-14T04:16:38.028Z,0.40
2018-11-14T04:19:06.867Z,0.40
2018-11-14T04:21:35.271Z,0.50
2018-11-14T04:24:03.677Z,0.30
2018-11-14T04:26:32.056Z,0.30
2018-11-14T04:29:00.186Z,0.20
2018-11-14T04:31:28.584Z,0.20
2018-11-14T04:33:56.984Z,0.30
2018-11-14T04:36:25.369Z,0.27
2018-11-14T04:38:53.788Z,0.30
2018-11-14T04:41:22.184Z,0.30
2018-11-14T04:43:50.603Z,0.40
2018-11-14T04:46:18.734Z,0.30
2018-11-14T04:48:47.152Z,0.40
2018-11-14T04:51:15.239Z,0.50
2018-11-14T04:53:43.632Z,0.50
2018-11-14T04:56:12.035Z,0.20
2018-11-14T04:58:40.457Z,0.60
2018-11-14T05:01:08.840Z,0.30
2018-11-14T05:03:36.936Z,0.30
2018-11-14T05:06:05.739Z,0.40
2018-11-14T05:08:34.136Z,0.40
2018-11-14T05:11:02.535Z,0.50
2018-11-14T05:13:30.967Z,0.60
2018-11-14T05:15:59.357Z,0.40
2018-11-14T05:18:27.775Z,0.60
2018-11-14T05:20:56.168Z,0.50
2018-11-14T05:23:24.560Z,0.60
2018-11-14T05:25:52.936Z,0.50
2018-11-14T05:28:21.065Z,0.60
2018-11-14T05:30:49.464Z,0.60
2018-11-14T05:33:17.615Z,0.47
2018-11-14T05:35:46.011Z,0.30
2018-11-14T05:38:14.164Z,0.40
2018-11-14T05:40:42.547Z,0.57
2018-11-14T05:43:10.972Z,0.50
2018-11-14T05:45:39.702Z,0.70
2018-11-14T05:48:08.068Z,0.70
2018-11-14T05:50:36.444Z,0.60
2018-11-14T05:53:05.132Z,0.67
2018-11-14T05:55:33.500Z,0.67
2018-11-14T05:58:02.104Z,0.90
2018-11-14T06:00:31.283Z,0.60
2018-11-14T06:03:01.032Z,0.80
2018-11-14T06:05:29.424Z,0.60
2018-11-14T06:07:57.931Z,0.70
2018-11-14T06:10:26.515Z,0.90
2018-11-14T06:12:54.960Z,0.70
2018-11-14T06:15:23.291Z,0.73
2018-11-14T06:17:52.939Z,0.80
2018-11-14T06:20:21.932Z,1.40
2018-11-14T06:22:51.171Z,1.10
2018-11-14T06:25:22.319Z,0.90
2018-11-14T06:27:51.801Z,1.30
2018-11-14T06:30:20.817Z,1.60
2018-11-14T06:32:49.099Z,1.43
2018-11-14T06:35:18.144Z,1.67
2018-11-14T06:37:46.944Z,1.90
2018-11-14T06:40:15.352Z,1.80
2018-11-14T06:42:43.764Z,1.43
2018-11-14T06:45:15.579Z,2.17
2018-11-14T06:47:45.172Z,1.70
2018-11-14T06:50:14.169Z,1.63
2018-11-14T06:52:42.866Z,1.40
2018-11-14T06:55:12.399Z,1.87
2018-11-14T06:57:40.919Z,1.57
2018-11-14T07:00:11.441Z,1.07
2018-11-14T07:02:39.944Z,0.97
2018-11-14T07:05:11.740Z,1.30
2018-11-14T07:07:40.478Z,1.80
2018-11-14T07:10:10.904Z,1.67
2018-11-14T07:12:39.014Z,1.77
2018-11-14T07:15:09.918Z,1.43
2018-11-14T07:17:38.479Z,1.00
2018-11-14T07:20:11.588Z,1.33
2018-11-14T07:22:39.697Z,1.57
2018-11-14T07:25:08.530Z,1.93
2018-11-14T07:27:36.940Z,2.43
2018-11-14T07:30:07.706Z,2.00
2018-11-14T07:32:36.116Z,2.27
2018-11-14T07:35:04.602Z,2.53
2018-11-14T07:37:32.984Z,2.67
2018-11-14T07:40:01.384Z,2.40
2018-11-14T07:42:29.495Z,2.90
2018-11-14T07:44:57.903Z,3.50
2018-11-14T07:47:26.016Z,4.07
2018-11-14T07:49:54.466Z,3.27
2018-11-14T07:52:22.908Z,2.50
2018-11-14T07:54:51.321Z,3.23
2018-11-14T07:57:20.449Z,3.50
2018-11-14T07:59:48.895Z,3.27
2018-11-14T08:02:17.467Z,3.53
2018-11-14T08:04:45.802Z,4.27
2018-11-14T08:07:14.240Z,3.47
2018-11-14T08:09:42.674Z,3.80
2018-11-14T08:12:11.089Z,4.73
2018-11-14T08:14:41.544Z,4.10
2018-11-14T08:17:11.204Z,4.40
2018-11-14T08:19:39.612Z,4.47
2018-11-14T08:22:08.029Z,4.57
2018-11-14T08:24:36.600Z,4.80
2018-11-14T08:27:04.751Z,5.13
2018-11-14T08:29:33.128Z,5.33
2018-11-14T08:32:01.566Z,6.00
2018-11-14T08:34:29.659Z,6.05
2018-11-14T08:36:57.787Z,7.53
2018-11-14T08:39:26.231Z,7.77
2018-11-14T08:41:54.716Z,9.07
2018-11-14T08:44:23.127Z,8.90
2018-11-14T08:46:51.251Z,8.27
2018-11-14T08:49:19.716Z,8.97
2018-11-14T08:51:48.185Z,8.77
2018-11-14T08:54:16.603Z,8.90
2018-11-14T08:56:45.056Z,9.28
2018-11-14T08:59:13.432Z,10.27
2018-11-14T09:01:41.841Z,9.73
2018-11-14T09:04:10.261Z,9.47
2018-11-14T09:06:38.644Z,9.97
2018-11-14T09:09:08.305Z,10.87
2018-11-14T09:11:36.708Z,10.23
2018-11-14T09:14:05.395Z,9.70
2018-11-14T09:16:33.937Z,10.35
2018-11-14T09:19:02.336Z,10.60
2018-11-14T09:21:30.917Z,11.20
2018-11-14T09:23:59.673Z,11.33
2018-11-14T09:26:27.783Z,10.17
2018-11-14T09:28:56.309Z,11.53
2018-11-14T09:31:24.763Z,11.03
2018-11-14T09:33:53.192Z,11.53
2018-11-14T09:36:21.355Z,11.47
2018-11-14T09:38:49.799Z,10.87
2018-11-14T09:41:18.254Z,10.23
2018-11-14T09:43:46.643Z,10.40
2018-11-14T09:46:15.135Z,10.20
2018-11-14T09:48:43.558Z,10.78
2018-11-14T09:51:11.696Z,9.53
2018-11-14T09:53:39.802Z,10.38
2018-11-14T09:56:08.212Z,10.87
2018-11-14T09:58:36.639Z,10.03
2018-11-14T10:01:05.860Z,9.80
2018-11-14T10:03:33.984Z,11.57
2018-11-14T10:06:02.421Z,10.30
2018-11-14T10:08:30.575Z,10.40
2018-11-14T10:10:59.075Z,10.40
2018-11-14T10:13:27.534Z,11.43
2018-11-14T10:15:56.005Z,10.05
2018-11-14T10:18:24.412Z,10.53
2018-11-14T10:20:52.821Z,10.93
2018-11-14T10:23:20.934Z,10.43
2018-11-14T10:25:49.376Z,9.30
2018-11-14T10:28:17.779Z,9.68
2018-11-14T10:30:45.944Z,9.98
2018-11-14T10:33:14.039Z,8.63
2018-11-14T10:35:42.448Z,8.38
2018-11-14T10:38:10.859Z,9.10
2018-11-14T10:40:39.280Z,8.35
2018-11-14T10:43:07.843Z,7.75
2018-11-14T10:45:36.128Z,7.85
2018-11-14T10:48:04.584Z,7.75
2018-11-14T10:50:32.712Z,7.50
2018-11-14T10:53:01.132Z,8.13
2018-11-14T10:55:29.237Z,8.03
2018-11-14T10:57:57.632Z,6.55
2018-11-14T11:00:32.076Z,7.08
2018-11-14T11:03:06.801Z,8.18
2018-11-14T11:05:40.627Z,8.90
2018-11-14T11:09:13.728Z,8.13
2018-11-14T11:11:48.057Z,8.05
2018-11-14T11:14:21.614Z,8.05
2018-11-14T11:16:55.479Z,8.55
2018-11-14T11:19:25.295Z,8.05
2018-11-14T11:21:53.728Z,7.03
2018-11-14T11:24:22.973Z,8.33
2018-11-14T11:26:51.472Z,7.90
2018-11-14T11:29:19.599Z,8.08
2018-11-14T11:31:48.001Z,6.40
2018-11-14T11:34:16.424Z,7.53
2018-11-14T11:36:44.852Z,6.87
2018-11-14T11:39:15.448Z,7.78
2018-11-14T11:41:44.563Z,8.95
2018-11-14T11:44:13.317Z,10.58
2018-11-14T11:46:42.455Z,9.53
2018-11-14T11:49:11.268Z,8.38
2018-11-14T11:51:39.359Z,9.15
2018-11-14T11:54:08.175Z,7.92
2018-11-14T11:56:36.963Z,9.20
2018-11-14T11:59:06.064Z,7.75
2018-11-14T12:01:34.647Z,8.20
2018-11-14T12:04:03.043Z,8.95
2018-11-14T12:06:31.539Z,9.20
2018-11-14T12:08:59.900Z,8.50
2018-11-14T12:11:28.318Z,8.60
2018-11-14T12:13:56.843Z,10.48
2018-11-14T12:16:25.159Z,9.25
2018-11-14T12:18:53.275Z,11.65
2018-11-14T12:21:21.705Z,10.40
2018-11-14T12:23:49.837Z,10.13
2018-11-14T12:26:18.255Z,10.05
2018-11-14T12:28:46.358Z,10.47
2018-11-14T12:31:14.930Z,9.60
2018-11-14T12:33:42.921Z,11.12
2018-11-14T12:36:11.027Z,11.28
2018-11-14T12:38:39.197Z,10.72
2018-11-14T12:41:07.612Z,10.63
2018-11-14T12:43:36.017Z,10.70
2018-11-14T12:46:04.626Z,10.83
2018-11-14T12:48:33.055Z,10.50
2018-11-14T12:51:01.497Z,9.73
2018-11-14T12:53:29.622Z,9.90
2018-11-14T12:55:58.019Z,10.07
2018-11-14T12:58:26.448Z,10.17
2018-11-14T13:00:54.861Z,10.80
2018-11-14T13:03:23.243Z,10.10
2018-11-14T13:05:51.700Z,10.07
2018-11-14T13:08:20.099Z,10.87
2018-11-14T13:10:48.517Z,9.40
2018-11-14T13:13:16.939Z,10.20
2018-11-14T13:15:45.055Z,9.90
2018-11-14T13:18:13.452Z,9.50
2018-11-14T13:20:41.595Z,9.67
2018-11-14T13:23:10.009Z,9.20
2018-11-14T13:25:38.420Z,9.13
2018-11-14T13:28:07.337Z,9.90
2018-11-14T13:30:35.728Z,9.37
2018-11-14T13:33:04.112Z,11.37
2018-11-14T13:35:32.615Z,9.70
2018-11-14T13:38:01.024Z,10.30
2018-11-14T13:40:29.452Z,11.97
2018-11-14T13:42:57.977Z,12.10
2018-11-14T13:45:26.376Z,10.53
2018-11-14T13:47:54.795Z,11.57
2018-11-14T13:50:23.545Z,12.00
2018-11-14T13:52:52.806Z,10.73
2018-11-14T13:55:21.554Z,10.30
2018-11-14T13:57:51.028Z,10.27
2018-11-14T14:00:21.976Z,11.80
2018-11-14T14:02:51.528Z,10.13
2018-11-14T14:05:22.747Z,10.27
2018-11-14T14:07:52.587Z,9.73
2018-11-14T14:10:22.257Z,11.13
2018-11-14T14:12:52.126Z,10.23
2018-11-14T14:15:22.043Z,12.70
2018-11-14T14:17:50.887Z,10.17
2018-11-14T14:20:19.990Z,11.13
2018-11-14T14:22:48.823Z,10.43
2018-11-14T14:25:18.451Z,9.13
2018-11-14T14:27:46.912Z,9.30
2018-11-14T14:30:16.627Z,10.60
2018-11-14T14:32:45.716Z,10.40
2018-11-14T14:35:15.368Z,10.67
2018-11-14T14:37:43.769Z,12.00
2018-11-14T14:40:16.207Z,8.90
2018-11-14T14:42:44.546Z,10.97
2018-11-14T14:45:14.448Z,11.37
2018-11-14T14:47:42.621Z,10.60
2018-11-14T14:50:13.081Z,9.73
2018-11-14T14:52:42.042Z,9.77
2018-11-14T14:55:14.276Z,11.07
2018-11-14T14:57:43.205Z,10.57
2018-11-14T15:00:14.939Z,10.30
2018-11-14T15:02:43.730Z,10.00
2018-11-14T15:05:12.958Z,9.85
2018-11-14T15:07:41.596Z,11.65
2018-11-14T15:10:14.280Z,12.10
2018-11-14T15:12:42.860Z,11.93
2018-11-14T15:15:12.920Z,12.43
2018-11-14T15:17:42.234Z,12.73
2018-11-14T15:20:11.713Z,11.60
2018-11-14T15:22:40.161Z,11.63
2018-11-14T15:25:10.605Z,12.40
2018-11-14T15:27:39.765Z,12.23
2018-11-14T15:30:11.445Z,11.10
2018-11-14T15:32:40.444Z,11.67
2018-11-14T15:35:09.644Z,12.50
2018-11-14T15:37:38.188Z,11.43
2018-11-14T15:40:07.002Z,11.83
2018-11-14T15:42:36.409Z,14.83
2018-11-14T15:45:05.908Z,12.23
2018-11-14T15:47:34.763Z,13.10
2018-11-14T15:50:03.175Z,14.47
2018-11-14T15:52:31.591Z,16.50
2018-11-14T15:55:00.004Z,14.10
2018-11-14T15:57:28.641Z,15.30
2018-11-14T15:59:57.047Z,14.00
2018-11-14T16:02:25.460Z,14.47
2018-11-14T16:04:53.883Z,13.63
2018-11-14T16:07:22.365Z,13.53
2018-11-14T16:09:50.848Z,14.77
2018-11-14T16:12:19.330Z,15.17
2018-11-14T16:14:47.705Z,18.80
2018-11-14T16:17:16.139Z,14.63
2018-11-14T16:19:44.247Z,14.10
2018-11-14T16:22:12.470Z,20.00
2018-11-14T16:24:40.668Z,14.23
2018-11-14T16:27:09.184Z,11.80
2018-11-14T16:29:37.582Z,13.80
2018-11-14T16:32:06.035Z,13.30
2018-11-14T16:34:34.653Z,13.23
2018-11-14T16:37:03.072Z,14.13
2018-11-14T16:39:31.501Z,13.90
2018-11-14T16:41:59.620Z,14.17
2018-11-14T16:44:28.033Z,13.27
2018-11-14T16:46:57.324Z,15.27
2018-11-14T16:49:25.437Z,14.43
2018-11-14T16:51:53.873Z,13.97
2018-11-14T16:54:22.259Z,14.63
2018-11-14T16:56:50.708Z,12.07
2018-11-14T16:59:19.132Z,14.47
2018-11-14T17:01:47.571Z,12.13
2018-11-14T17:04:16.181Z,13.07
2018-11-14T17:06:44.599Z,14.57
2018-11-14T17:09:13.933Z,13.27
2018-11-14T17:11:42.616Z,14.37
2018-11-14T17:14:11.041Z,14.97
2018-11-14T17:16:39.856Z,16.23
2018-11-14T17:19:08.259Z,16.27
2018-11-14T17:21:36.376Z,17.20
2018-11-14T17:24:05.012Z,14.87
2018-11-14T17:26:33.428Z,20.17
2018-11-14T17:29:01.861Z,15.93
2018-11-14T17:31:30.293Z,16.27
2018-11-14T17:33:58.733Z,15.50
2018-11-14T17:36:27.115Z,17.60
2018-11-14T17:38:55.243Z,20.20
2018-11-14T17:41:23.657Z,17.47
2018-11-14T17:43:52.075Z,20.07
2018-11-14T17:46:20.481Z,25.53
2018-11-14T17:48:48.865Z,26.90
2018-11-14T17:51:17.322Z,17.53
2018-11-14T17:53:45.404Z,19.07
2018-11-14T17:56:13.874Z,38.17
2018-11-14T17:58:41.978Z,21.60
2018-11-14T18:01:10.212Z,24.87
2018-11-14T18:03:38.532Z,26.77
2018-11-14T18:06:06.996Z,23.70
2018-11-14T18:08:36.230Z,24.60
2018-11-14T18:11:05.660Z,26.03
2018-11-14T18:13:34.076Z,18.83
2018-11-14T18:16:02.471Z,21.33
2018-11-14T18:18:30.579Z,23.30
2018-11-14T18:20:58.692Z,21.03
2018-11-14T18:23:27.187Z,19.17
2018-11-14T18:25:55.583Z,20.83
2018-11-14T18:28:24.103Z,18.57
2018-11-14T18:30:52.508Z,18.23
2018-11-14T18:33:20.960Z,18.63
2018-11-14T18:35:49.435Z,18.87
2018-11-14T18:38:17.892Z,22.57
2018-11-14T18:40:46.300Z,21.30
2018-11-14T18:43:14.707Z,22.33
2018-11-14T18:45:42.901Z,23.03
2018-11-14T18:48:10.960Z,20.33
2018-11-14T18:50:39.483Z,17.60
2018-11-14T18:53:07.991Z,17.80
2018-11-14T18:55:36.390Z,15.70
2018-11-14T18:58:05.275Z,15.33
2018-11-14T19:00:34.376Z,15.57
2018-11-14T19:03:02.514Z,17.30
2018-11-14T19:05:30.925Z,15.87
2018-11-14T19:07:59.383Z,15.50
2018-11-14T19:10:29.225Z,14.43
2018-11-14T19:12:57.758Z,14.70
2018-11-14T19:15:28.375Z,14.47
2018-11-14T19:17:56.815Z,15.67
2018-11-14T19:20:26.831Z,13.33
2018-11-14T19:22:56.028Z,14.13
2018-11-14T19:25:25.816Z,12.30
2018-11-14T19:27:54.252Z,13.67
2018-11-14T19:30:23.836Z,13.47
2018-11-14T19:32:53.109Z,14.30
2018-11-14T19:35:21.543Z,15.57
2018-11-14T19:37:50.723Z,15.87
2018-11-14T19:40:20.102Z,14.37
2018-11-14T19:42:49.721Z,13.93
2018-11-14T19:45:21.319Z,15.50
2018-11-14T19:47:49.755Z,15.67
2018-11-14T19:50:19.388Z,16.37
2018-11-14T19:52:48.012Z,17.00
2018-11-14T19:55:17.802Z,14.80
2018-11-14T19:57:47.199Z,14.80
2018-11-14T20:00:17.924Z,15.17
2018-11-14T20:02:46.411Z,16.30
2018-11-14T20:05:15.500Z,14.50
2018-11-14T20:07:43.967Z,17.00
2018-11-14T20:10:14.361Z,17.10
2018-11-14T20:12:42.479Z,15.20
2018-11-14T20:15:11.997Z,15.00
2018-11-14T20:17:41.387Z,15.63
2018-11-14T20:20:11.511Z,14.43
2018-11-14T20:22:40.128Z,18.90
2018-11-14T20:25:08.599Z,17.80
2018-11-14T20:27:38.059Z,15.77
2018-11-14T20:30:19.334Z,16.70
2018-11-14T20:32:47.738Z,19.37
2018-11-14T20:35:17.513Z,16.33
2018-11-14T20:37:46.080Z,16.13
2018-11-14T20:40:16.424Z,16.33
2018-11-14T20:42:45.187Z,16.30
2018-11-14T20:45:17.454Z,14.33
2018-11-14T20:47:45.867Z,15.10
2018-11-14T20:50:17.078Z,17.60
2018-11-14T20:52:46.590Z,16.83
2018-11-14T20:55:15.030Z,14.87
2018-11-14T20:57:43.798Z,14.37
2018-11-14T21:00:44.011Z,16.53
2018-11-14T21:03:12.481Z,15.30
2018-11-14T21:05:40.899Z,15.60
2018-11-14T21:08:09.284Z,14.60
2018-11-14T21:10:37.726Z,13.77
2018-11-14T21:13:06.511Z,16.00
2018-11-14T21:15:36.942Z,16.13
2018-11-14T21:18:05.320Z,15.07
2018-11-14T21:20:33.427Z,13.90
2018-11-14T21:23:01.945Z,13.10
2018-11-14T21:25:30.496Z,13.67
2018-11-14T21:27:59.176Z,14.43
2018-11-14T21:30:28.488Z,14.07
2018-11-14T21:32:56.916Z,13.73
2018-11-14T21:35:27.769Z,13.43
2018-11-14T21:37:57.599Z,14.20
2018-11-14T21:40:26.068Z,13.30
2018-11-14T21:42:54.356Z,13.00
2018-11-14T21:45:24.047Z,12.80
2018-11-14T21:47:57.844Z,14.07
2018-11-14T21:50:27.247Z,12.50
2018-11-14T21:52:55.700Z,11.80
2018-11-14T21:55:23.750Z,12.47
2018-11-14T21:57:52.185Z,12.77
2018-11-14T22:00:21.773Z,11.83
2018-11-14T22:02:51.696Z,12.00
2018-11-14T22:05:20.141Z,12.80
2018-11-14T22:07:48.551Z,11.07
2018-11-14T22:10:18.183Z,11.47
2018-11-14T22:12:47.272Z,12.97
2018-11-14T22:15:16.930Z,11.23
2018-11-14T22:17:45.342Z,11.33
2018-11-14T22:20:14.931Z,12.50
2018-11-14T22:22:44.020Z,12.80
2018-11-14T22:25:13.326Z,12.37
2018-11-14T22:27:42.051Z,12.90
2018-11-14T22:30:13.527Z,12.93
2018-11-14T22:32:41.960Z,12.33
2018-11-14T22:35:12.077Z,10.73
2018-11-14T22:37:40.634Z,12.57
2018-11-14T22:40:11.064Z,11.67
2018-11-14T22:42:39.516Z,11.77
2018-11-14T22:45:10.135Z,12.63
2018-11-14T22:47:39.035Z,10.57
2018-11-14T22:50:08.676Z,10.33
2018-11-14T22:52:37.431Z,10.33
2018-11-14T22:55:06.899Z,11.03
2018-11-14T22:57:35.359Z,10.10
2018-11-14T23:00:05.106Z,10.80
2018-11-14T23:02:33.569Z,11.77
2018-11-14T23:05:01.673Z,10.40
2018-11-14T23:07:29.812Z,11.07
2018-11-14T23:09:57.994Z,9.90
2018-11-14T23:12:26.331Z,10.53
2018-11-14T23:14:54.748Z,10.73
2018-11-14T23:17:23.197Z,11.87
2018-11-14T23:19:51.604Z,11.63
2018-11-14T23:22:19.719Z,12.40
2018-11-14T23:24:48.128Z,10.53
2018-11-14T23:27:16.239Z,11.80
2018-11-14T23:29:44.639Z,12.87
2018-11-14T23:32:13.029Z,12.43
2018-11-14T23:34:46.708Z,12.73
2018-11-14T23:37:15.088Z,12.87
2018-11-14T23:39:43.198Z,12.07
2018-11-14T23:42:11.591Z,11.90
2018-11-14T23:44:40.016Z,14.73
2018-11-14T23:47:08.148Z,12.97
2018-11-14T23:49:36.548Z,13.67
2018-11-14T23:52:05.128Z,13.27
2018-11-14T23:54:33.556Z,13.37
2018-11-14T23:57:01.988Z,13.90
2018-11-14T23:59:30.419Z,15.40
